Time;durP1;ratioP1;P1;durP2;ratioP2;P2;SDS_P1;SDS_P2;PMS_P1;PMS_P2;Temp;Humidity;BMP_temperature;BMP_pressure;BME280_temperature;BME280_humidity;BME280_pressure;Samples;Min_cycle;Max_cycle;Signal;HPM_P1;HPM_P2
2021/07/13 00:00:30;;;;;;;4.55;4.15;;;;;;;24.30;58.27;99205.25;6043209;23;20090;-82
2021/07/13 00:02:58;;;;;;;4.43;4.03;;;;;;;24.33;58.25;99204.03;6043137;23;20026;-82
2021/07/13 00:05:37;;;;;;;4.25;3.85;;;;;;;24.30;58.19;99204.41;6042965;23;20018;-82
2021/07/13 00:08:04;;;;;;;4.30;3.90;;;;;;;24.34;57.60;99209.22;6043190;23;20062;-82
2021/07/13 00:10:34;;;;;;;4.55;4.15;;;;;;;24.34;57.54;99211.91;6043395;23;20350;-82
2021/07/13 00:13:05;;;;;;;4.38;3.97;;;;;;;24.33;57.66;99209.41;6043141;23;20043;-82
2021/07/13 00:15:36;;;;;;;5.57;4.18;;;;;;;24.36;58.08;99210.91;6042820;23;20095;-82
2021/07/13 00:18:04;;;;;;;5.50;4.00;;;;;;;24.36;57.93;99213.59;6042942;23;20468;-82
2021/07/13 00:20:32;;;;;;;5.03;4.53;;;;;;;24.36;58.28;99222.47;6043250;23;20097;-82
2021/07/13 00:22:59;;;;;;;4.40;4.00;;;;;;;24.37;57.86;99220.63;6043343;23;20029;-82
2021/07/13 00:25:28;;;;;;;4.90;4.38;;;;;;;24.36;58.30;99216.28;6042708;23;20022;-82
2021/07/13 00:27:55;;;;;;;4.72;4.30;;;;;;;24.36;57.58;99216.28;6043281;23;20450;-82
2021/07/13 00:30:25;;;;;;;4.50;3.95;;;;;;;24.33;58.37;99214.78;6043168;23;20079;-82
2021/07/13 00:32:53;;;;;;;4.95;4.55;;;;;;;24.35;57.37;99215.44;6043017;23;20094;-82
2021/07/13 00:35:20;;;;;;;4.85;4.30;;;;;;;24.34;57.55;99222.66;6042813;23;20025;-82
2021/07/13 00:37:48;;;;;;;6.47;4.63;;;;;;;24.33;57.87;99207.56;6043229;23;20025;-82
2021/07/13 00:40:20;;;;;;;7.53;4.80;;;;;;;24.31;58.08;99214.16;6043163;23;20028;-82
2021/07/13 00:42:48;;;;;;;5.68;5.15;;;;;;;24.32;57.70;99210.44;6043528;23;20101;-82
2021/07/13 00:45:16;;;;;;;5.68;4.82;;;;;;;24.31;57.05;99209.63;6042973;23;20037;-82
2021/07/13 00:47:48;;;;;;;6.80;5.03;;;;;;;24.30;58.44;99213.31;6043404;23;20405;-82
2021/07/13 00:50:16;;;;;;;5.10;4.60;;;;;;;24.31;58.02;99208.78;6043087;23;20025;-83
2021/07/13 00:52:46;;;;;;;5.28;4.50;;;;;;;24.30;58.62;99202.53;6043051;23;20506;-82
2021/07/13 00:55:13;;;;;;;5.65;5.15;;;;;;;24.31;58.58;99201.53;6043199;23;20019;-83
2021/07/13 00:57:41;;;;;;;5.15;4.65;;;;;;;24.32;58.54;99196.97;6045002;23;20024;-82
2021/07/13 01:00:11;;;;;;;5.47;4.97;;;;;;;24.29;58.40;99195.50;6044284;23;20034;-82
2021/07/13 01:02:38;;;;;;;11.02;4.95;;;;;;;24.30;58.27;99188.28;6044693;23;20025;-82
2021/07/13 01:05:18;;;;;;;5.05;4.45;;;;;;;24.25;58.32;99188.84;6044674;23;20026;-82
2021/07/13 01:07:56;;;;;;;5.68;4.82;;;;;;;24.28;58.02;99190.31;6044530;23;20019;-82
2021/07/13 01:13:33;;;;;;;5.22;4.72;;;;;;;24.25;58.16;99191.53;6069797;23;20361;-83
2021/07/13 01:16:13;;;;;;;5.72;5.22;;;;;;;24.26;58.14;99189.69;6044408;23;20090;-82
2021/07/13 01:19:24;;;;;;;6.13;5.63;;;;;;;24.25;57.64;99193.41;5931554;24;20054;-83
2021/07/13 01:22:02;;;;;;;9.15;5.93;;;;;;;24.28;56.93;99188.47;5931461;24;20418;-82
2021/07/13 01:24:36;;;;;;;6.07;5.32;;;;;;;24.25;56.84;99191.53;5954100;24;20039;-82
2021/07/13 01:27:41;;;;;;;6.00;5.50;;;;;;;24.22;56.98;99188.41;5931436;24;20141;-82
2021/07/13 01:30:11;;;;;;;6.78;5.55;;;;;;;24.25;57.09;99186.16;5931497;24;20027;-82
2021/07/13 01:32:50;;;;;;;6.15;5.55;;;;;;;24.22;57.39;99185.72;5931336;24;20029;-82
2021/07/13 01:35:24;;;;;;;9.50;5.70;;;;;;;24.22;57.79;99181.16;5953961;24;20024;-82
2021/07/13 01:37:55;;;;;;;6.63;5.57;;;;;;;24.22;58.76;99181.16;5977737;24;20026;-82
2021/07/13 01:40:24;;;;;;;6.22;5.22;;;;;;;24.22;58.39;99180.34;5958801;24;20023;-82
2021/07/13 01:42:53;;;;;;;5.90;5.40;;;;;;;24.20;58.24;99183.22;5958895;24;20144;-82
2021/07/13 01:45:20;;;;;;;6.10;5.55;;;;;;;24.20;58.73;99177.84;5958298;24;20455;-82
2021/07/13 01:47:48;;;;;;;9.07;5.93;;;;;;;24.16;58.65;99172.03;5958856;24;20038;-82
2021/07/13 01:50:15;;;;;;;7.40;6.72;;;;;;;24.16;57.72;99179.25;5958690;24;20020;-83
2021/07/13 01:52:44;;;;;;;8.30;6.93;;;;;;;24.13;57.97;99182.31;5958700;24;20032;-82
2021/07/13 01:55:14;;;;;;;7.40;6.70;;;;;;;24.08;58.52;99172.91;5967985;23;20045;-82
2021/07/13 01:57:42;;;;;;;10.23;6.93;;;;;;;24.08;58.33;99183.69;6040735;23;20110;-82
2021/07/13 02:00:18;;;;;;;6.60;6.00;;;;;;;24.04;58.96;99178.88;6038911;23;20196;-82
2021/07/13 02:02:47;;;;;;;6.30;5.70;;;;;;;24.05;58.79;99178.69;6015814;23;20059;-82
2021/07/13 02:05:14;;;;;;;7.03;6.38;;;;;;;24.05;59.02;99173.31;6015863;23;20101;-83
2021/07/13 02:07:49;;;;;;;6.68;6.07;;;;;;;24.03;59.32;99177.22;6039135;23;20027;-82
2021/07/13 02:10:18;;;;;;;6.90;6.28;;;;;;;24.02;59.10;99167.47;6016713;23;20392;-82
2021/07/13 02:12:52;;;;;;;8.73;6.65;;;;;;;23.98;59.57;99174.25;6016340;23;20023;-82
2021/07/13 02:15:19;;;;;;;8.45;7.65;;;;;;;23.99;59.44;99174.06;6015330;23;20451;-82
2021/07/13 02:17:50;;;;;;;7.85;7.05;;;;;;;23.97;59.58;99165.38;6038724;23;20481;-82
2021/07/13 02:20:27;;;;;;;9.10;8.20;;;;;;;23.92;59.55;99170.50;6039664;23;20094;-82
2021/07/13 02:22:54;;;;;;;10.52;8.98;;;;;;;23.94;58.85;99163.91;6015814;23;20027;-82
2021/07/13 02:25:21;;;;;;;10.38;9.27;;;;;;;23.93;58.71;99172.97;6015743;23;20443;-82
2021/07/13 02:28:16;;;;;;;11.07;9.68;;;;;;;23.86;59.05;99177.47;6015638;23;20105;-82
2021/07/13 02:30:49;;;;;;;10.50;9.50;;;;;;;23.89;59.46;99170.88;6038779;23;20020;-82
2021/07/13 02:33:18;;;;;;;11.20;10.07;;;;;;;23.91;58.68;99169.66;6039065;23;20451;-82
2021/07/13 02:36:02;;;;;;;11.23;10.02;;;;;;;23.86;59.04;99171.22;6015156;23;20058;-82
2021/07/13 02:38:30;;;;;;;10.15;9.13;;;;;;;23.90;58.89;99165.31;6039084;23;20486;-83
2021/07/13 02:40:58;;;;;;;10.25;9.20;;;;;;;23.89;58.97;99165.50;6038750;23;20023;-83
2021/07/13 02:43:26;;;;;;;12.02;9.02;;;;;;;23.88;59.60;99156.59;6015144;23;20025;-82
2021/07/13 02:45:54;;;;;;;11.63;9.82;;;;;;;23.88;59.28;99159.28;6038672;23;20030;-82
2021/07/13 02:48:21;;;;;;;11.48;9.88;;;;;;;23.87;59.55;99146.84;6038736;23;20098;-82
2021/07/13 02:50:59;;;;;;;13.63;12.30;;;;;;;23.84;60.18;99151.78;6046015;23;20098;-82
2021/07/13 02:53:27;;;;;;;15.45;13.90;;;;;;;23.87;59.41;99156.75;6042693;23;20102;-82
2021/07/13 02:55:54;;;;;;;14.85;13.45;;;;;;;23.87;59.88;99154.06;6042885;23;20098;-82
2021/07/13 02:58:22;;;;;;;13.90;12.52;;;;;;;23.87;59.77;99151.38;6043521;23;20018;-82
2021/07/13 03:00:50;;;;;;;15.82;14.00;;;;;;;23.87;60.41;99146.00;6044043;23;20102;-82
2021/07/13 03:03:17;;;;;;;13.98;12.23;;;;;;;23.87;60.02;99140.66;6044004;23;20023;-82
2021/07/13 03:05:52;;;;;;;14.50;13.10;;;;;;;23.86;60.58;99147.03;6043415;23;20029;-83
2021/07/13 03:08:22;;;;;;;13.80;11.70;;;;;;;23.87;60.71;99140.66;6068535;23;20662;-84
2021/07/13 03:10:50;;;;;;;13.18;11.93;;;;;;;23.88;60.29;99142.34;6043595;23;20027;-84
2021/07/13 03:13:22;;;;;;;14.77;13.13;;;;;;;23.86;61.08;99134.44;6043357;23;20022;-84
2021/07/13 03:15:49;;;;;;;15.45;13.95;;;;;;;23.88;60.46;99142.34;6043691;23;20051;-84
2021/07/13 03:18:17;;;;;;;15.65;14.15;;;;;;;23.87;60.14;99133.41;6043356;23;20030;-84
2021/07/13 03:20:52;;;;;;;15.43;13.90;;;;;;;23.86;60.78;99131.75;6042965;23;20018;-84
2021/07/13 03:23:20;;;;;;;15.77;13.55;;;;;;;23.88;60.66;99127.03;6068534;23;20117;-84
2021/07/13 03:25:50;;;;;;;14.88;13.38;;;;;;;23.89;61.04;99136.75;6043318;23;20031;-84
2021/07/13 03:28:17;;;;;;;13.70;12.38;;;;;;;23.91;60.70;99139.25;6043941;23;20508;-84
2021/07/13 03:30:57;;;;;;;14.23;12.90;;;;;;;23.87;60.36;99137.94;6043766;23;20485;-88
2021/07/13 03:33:25;;;;;;;14.93;13.38;;;;;;;23.92;60.28;99143.63;6043843;23;20406;-88
2021/07/13 03:35:55;;;;;;;14.70;13.13;;;;;;;23.93;60.28;99131.84;6043524;23;20026;-87
2021/07/13 03:38:45;;;;;;;13.98;12.60;;;;;;;23.91;60.48;99129.34;6043749;23;20509;-88
2021/07/13 03:41:13;;;;;;;14.98;13.48;;;;;;;23.98;60.34;99124.03;6043797;23;20054;-87
2021/07/13 03:43:41;;;;;;;14.80;13.40;;;;;;;23.99;60.70;99123.00;6043325;23;20084;-88
2021/07/13 03:46:11;;;;;;;14.70;13.20;;;;;;;24.01;60.37;99120.97;6043372;23;20061;-88
2021/07/13 03:48:39;;;;;;;13.05;11.85;;;;;;;24.03;60.26;99126.97;6043326;23;20022;-82
2021/07/13 03:51:13;;;;;;;12.80;11.35;;;;;;;24.05;60.24;99124.94;6043764;23;20395;-82
2021/07/13 03:53:41;;;;;;;12.10;11.00;;;;;;;24.08;59.68;99132.59;5957497;24;20555;-82
2021/07/13 03:56:08;;;;;;;13.00;11.75;;;;;;;24.11;59.77;99135.97;5957571;24;20071;-82
2021/07/13 03:58:35;;;;;;;13.15;10.60;;;;;;;24.14;59.59;99136.41;5957988;24;20028;-83
2021/07/13 04:01:04;;;;;;;13.57;12.35;;;;;;;24.15;59.63;99143.44;5957798;24;20125;-82
2021/07/13 04:03:31;;;;;;;15.30;12.57;;;;;;;24.18;59.83;99142.25;5957817;24;20048;-82
2021/07/13 04:05:58;;;;;;;13.38;12.07;;;;;;;24.19;59.66;99142.03;5957686;24;20028;-82
2021/07/13 04:08:31;;;;;;;14.43;12.13;;;;;;;24.18;59.66;99145.75;5957725;24;20151;-82
2021/07/13 04:10:57;;;;;;;;;;;;;;;24.21;59.53;99149.91;5970591;23;20023;-82
2021/07/13 04:13:24;;;;;;;13.55;11.73;;;;;;;24.28;59.09;99148.13;6043235;23;19929;-82
2021/07/13 04:15:57;;;;;;;12.45;11.23;;;;;;;24.24;59.38;99144.16;6043589;23;20031;-92
2021/07/13 04:18:24;;;;;;;13.32;12.05;;;;;;;24.25;59.76;99143.13;6043894;23;20030;-91
2021/07/13 04:27:55;;;;;;;12.90;11.65;;;;;;;24.26;59.75;99152.84;6068784;23;20353;-92
2021/07/13 04:34:11;;;;;;;14.88;13.38;;;;;;;24.25;59.79;99143.13;6070553;23;20345;-91
2021/07/13 04:36:39;;;;;;;16.55;14.95;;;;;;;24.26;59.85;99146.66;6070927;23;20434;-92
2021/07/13 04:39:07;;;;;;;16.48;14.95;;;;;;;24.23;59.99;99149.72;6045028;23;20037;-87
2021/07/13 04:41:34;;;;;;;15.02;13.60;;;;;;;24.23;59.77;99145.19;6044644;23;20023;-88
2021/07/13 04:44:01;;;;;;;16.15;14.55;;;;;;;24.24;59.90;99140.63;6044720;23;20031;-88
2021/07/13 04:46:28;;;;;;;16.45;14.75;;;;;;;24.23;60.36;99141.66;6045159;23;20023;-88
2021/07/13 04:48:56;;;;;;;15.45;13.88;;;;;;;24.24;60.14;99137.94;6044933;23;20030;-88
2021/07/13 04:51:33;;;;;;;16.17;14.63;;;;;;;24.20;60.74;99141.03;6045222;23;20022;-88
2021/07/13 04:54:00;;;;;;;17.40;15.10;;;;;;;24.26;60.18;99141.28;6044383;23;20026;-87
2021/07/13 04:56:27;;;;;;;16.77;15.15;;;;;;;24.26;60.16;99134.03;6044470;23;20026;-87
2021/07/13 04:58:58;;;;;;;18.17;16.40;;;;;;;24.24;60.66;99136.09;6045019;23;20030;-88
2021/07/13 05:01:24;;;;;;;18.05;16.25;;;;;;;24.26;59.93;99135.91;6045027;23;20023;-88
2021/07/13 05:03:51;;;;;;;17.83;16.08;;;;;;;24.25;60.04;99140.44;6044872;23;20027;-88
2021/07/13 05:06:19;;;;;;;18.55;16.73;;;;;;;24.25;60.09;99139.63;6045245;23;20077;-88
2021/07/13 05:08:45;;;;;;;18.33;16.65;;;;;;;24.24;60.58;99146.00;6044549;23;20026;-88
2021/07/13 05:11:12;;;;;;;18.85;17.10;;;;;;;24.23;60.71;99144.34;6044718;23;20019;-87
2021/07/13 05:13:39;;;;;;;19.60;17.80;;;;;;;24.22;60.39;99140.81;6044283;23;20037;-88
2021/07/13 05:16:06;;;;;;;18.20;16.30;;;;;;;24.22;60.85;99137.31;6044811;23;20360;-88
2021/07/13 05:18:37;;;;;;;19.55;17.73;;;;;;;24.20;60.75;99145.56;6069761;23;20327;-88
2021/07/13 05:21:05;;;;;;;17.88;16.20;;;;;;;24.23;60.62;99139.81;6044634;23;20454;-88
2021/07/13 05:23:33;;;;;;;17.92;16.13;;;;;;;24.22;60.76;99151.56;6044432;23;20033;-88
2021/07/13 05:26:00;;;;;;;18.63;16.67;;;;;;;24.24;60.96;99143.31;6044295;23;20101;-87
2021/07/13 05:28:26;;;;;;;18.88;16.77;;;;;;;24.24;60.91;99146.00;6044941;23;20341;-88
2021/07/13 05:30:56;;;;;;;17.77;16.13;;;;;;;24.24;61.48;99146.00;6067980;23;20015;-88
2021/07/13 05:33:23;;;;;;;19.13;17.30;;;;;;;24.27;61.31;99142.94;6044432;23;20023;-89
2021/07/13 05:35:50;;;;;;;18.38;16.60;;;;;;;24.30;61.42;99139.88;6044249;23;20030;-89
2021/07/13 05:38:17;;;;;;;17.92;16.17;;;;;;;24.31;61.05;99142.38;6044716;23;20769;-89
2021/07/13 05:40:45;;;;;;;17.83;16.20;;;;;;;24.33;61.34;99144.84;6044346;23;20472;-89
2021/07/13 05:43:14;;;;;;;18.67;16.10;;;;;;;24.36;61.10;99149.84;6044664;23;20349;-85
2021/07/13 05:45:45;;;;;;;19.15;16.60;;;;;;;24.38;61.63;99141.59;6044087;23;20026;-86
2021/07/13 05:48:11;;;;;;;16.55;14.95;;;;;;;24.43;60.97;99150.75;6044689;23;20033;-86
2021/07/13 05:50:38;;;;;;;17.80;16.13;;;;;;;24.46;61.57;99152.22;6044353;23;20028;-85
2021/07/13 05:53:05;;;;;;;16.60;14.90;;;;;;;24.49;61.51;99153.69;6044729;23;20097;-86
2021/07/13 05:55:32;;;;;;;16.38;14.77;;;;;;;24.51;60.97;99146.28;6043869;23;20517;-86
2021/07/13 05:57:59;;;;;;;15.73;14.27;;;;;;;24.53;61.38;99150.44;6044455;23;20029;-84
2021/07/13 06:00:26;;;;;;;16.38;14.65;;;;;;;24.55;61.32;99147.53;6044518;23;20346;-84
2021/07/13 06:02:52;;;;;;;16.40;14.70;;;;;;;24.57;61.50;99151.72;6043865;23;20029;-85
2021/07/13 06:05:19;;;;;;;17.05;15.40;;;;;;;24.59;61.54;99154.19;6044290;23;20337;-84
2021/07/13 06:07:49;;;;;;;15.55;14.15;;;;;;;24.59;61.84;99151.47;6044644;23;20494;-84
2021/07/13 06:10:17;;;;;;;18.25;16.35;;;;;;;24.62;61.51;99155.66;6043994;23;20018;-84
2021/07/13 06:12:56;;;;;;;16.73;15.18;;;;;;;24.60;62.20;99155.88;6044491;23;20356;-84
2021/07/13 06:15:23;;;;;;;16.38;14.88;;;;;;;24.66;61.92;99156.91;6043969;23;20026;-84
2021/07/13 06:17:50;;;;;;;17.08;15.38;;;;;;;24.67;61.83;99154.03;6043926;23;20026;-85
2021/07/13 06:20:19;;;;;;;16.58;15.05;;;;;;;24.68;61.35;99161.09;6044336;23;20027;-85
2021/07/13 06:22:45;;;;;;;17.02;15.32;;;;;;;24.70;61.66;99164.41;6044513;23;20031;-86
2021/07/13 06:25:13;;;;;;;15.77;14.27;;;;;;;24.71;61.28;99160.69;6043883;23;20468;-86
2021/07/13 06:27:40;;;;;;;15.68;13.95;;;;;;;24.73;61.19;99169.41;6044227;23;20097;-85
2021/07/13 06:30:09;;;;;;;17.70;15.50;;;;;;;24.72;61.57;99170.47;6044038;23;20025;-85
2021/07/13 06:32:36;;;;;;;17.25;15.55;;;;;;;24.75;61.65;99168.38;6044019;23;20018;-85
2021/07/13 06:35:03;;;;;;;17.30;15.60;;;;;;;24.74;61.86;99175.63;6043328;23;20074;-85
2021/07/13 06:37:29;;;;;;;16.83;15.23;;;;;;;24.75;61.39;99171.06;6044180;23;20085;-85
2021/07/13 06:39:56;;;;;;;19.33;16.55;;;;;;;24.75;61.59;99179.16;6068927;23;20023;-85
2021/07/13 06:42:31;;;;;;;15.63;14.15;;;;;;;24.71;62.26;99176.03;6044391;23;20031;-85
2021/07/13 06:44:58;;;;;;;16.00;14.40;;;;;;;24.75;61.56;99187.22;6043531;23;20018;-85
2021/07/13 06:47:24;;;;;;;16.08;14.48;;;;;;;24.75;61.69;99184.53;6068890;23;20075;-85
2021/07/13 06:49:51;;;;;;;16.08;14.57;;;;;;;24.75;61.93;99185.38;6043695;23;20023;-85
2021/07/13 06:52:18;;;;;;;21.05;17.55;;;;;;;24.78;62.46;99192.22;6043281;23;20105;-85
2021/07/13 06:54:45;;;;;;;17.13;15.52;;;;;;;24.79;62.75;99196.56;6043652;23;20343;-84
2021/07/13 06:57:17;;;;;;;18.52;15.90;;;;;;;24.78;62.89;99195.72;6044433;23;20027;-84
2021/07/13 06:59:44;;;;;;;16.02;14.60;;;;;;;24.84;62.35;99202.22;6043954;23;20030;-84
2021/07/13 07:02:12;;;;;;;19.23;17.35;;;;;;;24.85;63.02;99202.03;6043722;23;20023;-83
2021/07/13 07:04:39;;;;;;;19.25;17.42;;;;;;;24.88;62.17;99206.19;6043345;23;20027;-84
2021/07/13 07:07:06;;;;;;;21.00;17.67;;;;;;;24.90;62.52;99206.00;6043617;23;20023;-84
2021/07/13 07:09:33;;;;;;;19.60;17.67;;;;;;;24.93;62.29;99208.31;6043731;23;20023;-83
2021/07/13 07:12:07;;;;;;;19.65;17.75;;;;;;;24.92;63.00;99207.47;6044010;23;20030;-84
2021/07/13 07:14:36;;;;;;;17.10;15.60;;;;;;;24.96;62.19;99207.91;6043640;23;20022;-84
2021/07/13 07:17:03;;;;;;;18.27;16.48;;;;;;;25.00;62.49;99208.38;6044002;23;20069;-83
2021/07/13 07:19:30;;;;;;;17.83;15.45;;;;;;;25.01;62.05;99201.94;6043333;23;20062;-84
2021/07/13 07:22:09;;;;;;;17.10;15.50;;;;;;;24.98;62.44;99211.25;6044287;23;20034;-84
2021/07/13 07:24:35;;;;;;;17.83;16.13;;;;;;;25.03;61.88;99208.81;6043253;23;20022;-84
2021/07/13 07:27:05;;;;;;;16.75;15.05;;;;;;;25.02;61.86;99215.22;6043645;23;20022;-83
2021/07/13 07:29:32;;;;;;;18.08;16.17;;;;;;;25.02;61.62;99209.84;6043545;23;20061;-84
2021/07/13 07:32:00;;;;;;;18.70;16.85;;;;;;;25.03;61.96;99214.19;6043280;23;20065;-84
2021/07/13 07:34:27;;;;;;;17.13;15.52;;;;;;;25.03;62.33;99208.81;6043099;23;20019;-84
2021/07/13 07:36:55;;;;;;;20.40;18.48;;;;;;;25.03;62.24;99213.34;6043735;23;20097;-84
2021/07/13 07:39:25;;;;;;;22.17;19.08;;;;;;;25.01;62.77;99216.25;6043576;23;20357;-84
2021/07/13 07:41:52;;;;;;;19.00;17.25;;;;;;;25.03;62.43;99213.34;6043230;23;20027;-84
2021/07/13 07:44:23;;;;;;;19.13;17.20;;;;;;;25.03;62.27;99213.34;6043650;23;20451;-84
2021/07/13 07:46:50;;;;;;;21.73;19.55;;;;;;;25.04;62.76;99215.03;6043410;23;20054;-84
2021/07/13 07:49:17;;;;;;;18.33;16.65;;;;;;;25.05;62.69;99214.00;6043833;23;20026;-84
2021/07/13 07:51:44;;;;;;;19.58;17.67;;;;;;;25.06;62.66;99204.88;6043606;23;20446;-84
2021/07/13 07:54:11;;;;;;;18.15;16.20;;;;;;;25.06;62.83;99203.03;6043069;23;20059;-84
2021/07/13 07:56:38;;;;;;;23.02;18.13;;;;;;;25.07;62.62;99204.69;6043719;23;20027;-84
2021/07/13 07:59:05;;;;;;;21.05;18.80;;;;;;;25.08;62.79;99194.75;6067312;23;20023;-84
2021/07/13 08:01:32;;;;;;;20.02;18.02;;;;;;;25.08;62.51;99194.75;6043516;23;20462;-84
2021/07/13 08:04:02;;;;;;;20.13;18.25;;;;;;;25.06;62.46;99197.66;6043696;23;20128;-85
2021/07/13 08:06:29;;;;;;;19.42;17.65;;;;;;;25.06;62.43;99202.19;6045589;23;20323;-84
2021/07/13 08:08:55;;;;;;;17.52;15.73;;;;;;;25.05;62.57;99206.75;6045504;23;20782;-84
2021/07/13 08:11:49;;;;;;;20.45;18.25;;;;;;;24.98;62.70;99205.88;6045101;23;20339;-85
2021/07/13 08:14:16;;;;;;;16.95;15.27;;;;;;;25.02;62.50;99196.38;6045278;23;20327;-85
2021/07/13 08:16:43;;;;;;;19.15;17.25;;;;;;;24.99;62.79;99196.75;6069021;23;20446;-82
2021/07/13 08:19:12;;;;;;;19.23;17.30;;;;;;;24.95;62.53;99196.31;6045505;23;20029;-82
2021/07/13 08:21:39;;;;;;;29.35;19.45;;;;;;;24.95;62.64;99200.88;6045104;23;20027;-82
2021/07/13 08:24:17;;;;;;;20.42;18.40;;;;;;;24.89;63.38;99196.28;6045263;23;20023;-82
2021/07/13 08:26:44;;;;;;;20.85;18.70;;;;;;;24.94;63.29;99201.91;6044906;23;20037;-90
2021/07/13 08:29:11;;;;;;;19.77;17.92;;;;;;;24.94;63.34;99200.06;6045646;23;20342;-90
2021/07/13 08:31:37;;;;;;;18.73;17.02;;;;;;;24.95;63.38;99190.94;6045178;23;20019;-90
2021/07/13 08:34:04;;;;;;;22.52;17.92;;;;;;;24.98;63.47;99195.09;6045162;23;20029;-90
2021/07/13 08:40:00;;;;;;;20.80;18.77;;;;;;;25.04;63.68;99186.22;6070405;23;20029;-90
2021/07/13 08:42:28;;;;;;;20.73;18.75;;;;;;;25.05;63.74;99187.06;6045960;23;20327;-90
2021/07/13 08:44:57;;;;;;;18.83;17.02;;;;;;;25.06;63.50;99184.19;6045272;23;20142;-90
2021/07/13 08:47:29;;;;;;;20.42;18.27;;;;;;;25.05;63.31;99189.75;6045332;23;20097;-90
2021/07/13 08:50:40;;;;;;;17.40;15.75;;;;;;;25.03;63.29;99192.66;6044778;23;20023;-90
2021/07/13 08:53:07;;;;;;;20.25;18.35;;;;;;;25.07;63.21;99193.91;6045508;23;20345;-90
2021/07/13 08:55:34;;;;;;;19.63;17.63;;;;;;;25.06;63.07;99184.19;6044722;23;20019;-90
2021/07/13 09:05:28;;;;;;;17.88;16.08;;;;;;;25.03;63.63;99198.03;6070005;23;20469;-90
2021/07/13 09:07:55;;;;;;;18.67;16.70;;;;;;;25.05;63.24;99196.00;6044890;23;20105;-90
2021/07/13 09:10:22;;;;;;;20.58;18.45;;;;;;;25.04;64.13;99204.25;6044892;23;20019;-89
2021/07/13 09:13:05;;;;;;;20.98;18.92;;;;;;;24.99;64.25;99202.13;6045014;23;20030;-89
2021/07/13 09:15:35;;;;;;;20.80;18.67;;;;;;;25.05;63.92;99203.22;6045321;23;20033;-89
2021/07/13 09:21:42;;;;;;;16.67;15.07;;;;;;;25.11;63.87;99224.81;6069820;23;20025;-89
2021/07/13 09:24:21;;;;;;;21.63;19.52;;;;;;;25.10;64.00;99222.31;6044403;23;20019;-89
2021/07/13 09:30:14;;;;;;;21.85;19.80;;;;;;;25.17;63.82;99230.44;6069740;23;20525;-90
2021/07/13 09:36:11;;;;;;;18.45;16.58;;;;;;;25.20;63.78;99217.41;6070033;23;20029;-90
2021/07/13 09:42:02;;;;;;;20.85;18.85;;;;;;;25.23;64.41;99218.88;6069510;23;20023;-89
2021/07/13 09:44:29;;;;;;;19.55;17.65;;;;;;;25.25;64.40;99222.19;6044718;23;20107;-90
2021/07/13 09:47:27;;;;;;;20.92;18.77;;;;;;;25.21;64.35;99221.78;6044894;23;20030;-90
2021/07/13 09:49:54;;;;;;;18.25;16.20;;;;;;;25.29;64.03;99218.09;6044805;23;20023;-90
2021/07/13 09:52:27;;;;;;;18.58;16.88;;;;;;;25.28;64.27;99223.66;6044808;23;20046;-90
2021/07/13 09:55:14;;;;;;;21.02;19.02;;;;;;;25.27;64.27;99222.84;6044182;23;20113;-89
2021/07/13 09:57:40;;;;;;;20.40;18.20;;;;;;;25.33;64.30;99224.75;6044249;23;20101;-89
2021/07/13 10:00:08;;;;;;;19.25;17.45;;;;;;;25.35;64.20;99228.06;6069245;23;20032;-84
2021/07/13 10:02:39;;;;;;;20.65;18.48;;;;;;;25.35;64.35;99230.75;6044548;23;20346;-84
2021/07/13 10:05:06;;;;;;;19.25;17.52;;;;;;;25.38;64.35;99229.56;6043983;23;20031;-84
2021/07/13 10:07:33;;;;;;;19.25;17.48;;;;;;;25.41;64.28;99228.31;6044144;23;20117;-84
2021/07/13 10:10:05;;;;;;;18.70;16.95;;;;;;;25.44;64.76;99227.91;6044268;23;20361;-84
2021/07/13 10:12:32;;;;;;;18.83;17.02;;;;;;;25.50;64.32;99227.13;6044128;23;20102;-84
2021/07/13 10:15:00;;;;;;;17.45;15.75;;;;;;;25.53;64.36;99224.00;6043909;23;20064;-84
2021/07/13 10:17:32;;;;;;;18.52;16.73;;;;;;;25.54;64.17;99225.69;6044377;23;20392;-84
2021/07/13 10:20:03;;;;;;;;;;;;;;;25.58;63.77;99229.69;6044398;23;20064;-84
2021/07/13 10:22:35;;;;;;;16.60;15.07;;;;;;;25.66;63.36;99222.44;6043895;23;19923;-84
2021/07/13 10:25:03;;;;;;;17.90;16.08;;;;;;;25.68;63.66;99226.59;6043826;23;20022;-84
2021/07/13 10:27:35;;;;;;;20.15;18.23;;;;;;;25.68;63.83;99225.78;6044295;23;20054;-84
2021/07/13 10:30:09;;;;;;;20.23;18.40;;;;;;;25.68;63.48;99220.41;6044041;23;20037;-84
2021/07/13 10:32:41;;;;;;;19.48;17.50;;;;;;;25.68;63.32;99217.72;6044283;23;20029;-84
2021/07/13 10:38:14;;;;;;;20.85;18.65;;;;;;;25.63;62.99;99224.53;6068942;23;20105;-84
2021/07/13 10:40:42;;;;;;;19.27;17.38;;;;;;;25.61;63.16;99226.56;6043637;23;20022;-84
2021/07/13 10:43:19;;;;;;;22.17;20.10;;;;;;;25.54;63.57;99225.69;6044140;23;20455;-84
2021/07/13 10:45:47;;;;;;;21.73;19.52;;;;;;;25.55;63.23;99221.13;6043725;23;20038;-85
2021/07/13 10:48:19;;;;;;;18.38;16.63;;;;;;;25.50;63.58;99222.56;6043961;23;20082;-84
2021/07/13 10:51:03;;;;;;;19.70;18.00;;;;;;;25.46;63.65;99218.59;6043703;23;20033;-84
2021/07/13 10:53:33;;;;;;;21.40;19.25;;;;;;;25.48;63.24;99216.53;6044141;23;20105;-84
2021/07/13 10:56:25;;;;;;;23.00;20.55;;;;;;;25.48;63.57;99215.69;6043535;23;20019;-84
2021/07/13 10:58:53;;;;;;;20.75;18.88;;;;;;;25.50;63.58;99216.34;6042508;23;20362;-84
2021/07/13 11:01:24;;;;;;;20.92;18.95;;;;;;;25.50;64.12;99219.03;6043517;23;20019;-84
2021/07/13 11:03:54;;;;;;;23.30;20.85;;;;;;;25.54;64.22;99217.63;6043819;23;20506;-84
2021/07/13 11:06:45;;;;;;;25.05;22.58;;;;;;;25.54;64.39;99224.84;6043566;23;20029;-84
2021/07/13 11:09:17;;;;;;;23.95;21.63;;;;;;;25.62;64.54;99228.25;6043859;23;20029;-82
2021/07/13 11:11:44;;;;;;;25.17;22.70;;;;;;;25.69;63.97;99231.00;6043704;23;20023;-84
2021/07/13 11:14:16;;;;;;;27.02;24.13;;;;;;;25.75;64.52;99232.88;6043388;23;20800;-85
2021/07/13 11:16:48;;;;;;;25.33;22.90;;;;;;;25.86;64.07;99233.31;6043644;23;20423;-85
2021/07/13 11:19:16;;;;;;;26.53;23.93;;;;;;;25.97;63.76;99240.00;6043750;23;20061;-85
2021/07/13 11:21:45;;;;;;;28.33;25.52;;;;;;;26.05;63.62;99233.63;6069283;23;20722;-86
2021/07/13 11:24:41;;;;;;;28.40;25.70;;;;;;;26.14;63.84;99227.84;6043794;23;20029;-86
2021/07/13 11:27:08;;;;;;;28.48;25.45;;;;;;;26.26;63.74;99238.91;6036171;23;20023;-85
2021/07/13 11:29:35;;;;;;;29.85;26.88;;;;;;;26.33;63.15;99228.13;6043374;23;20106;-89
2021/07/13 11:32:09;;;;;;;29.83;26.85;;;;;;;26.39;63.78;99231.88;6043589;23;20074;-89
2021/07/13 11:34:38;;;;;;;29.33;26.45;;;;;;;26.50;63.53;99233.94;6043730;23;20450;-89
2021/07/13 11:37:07;;;;;;;30.52;27.52;;;;;;;26.58;63.11;99232.94;6043911;23;20023;-89
2021/07/13 11:39:39;;;;;;;31.95;28.88;;;;;;;26.65;63.01;99238.34;6043756;23;20030;-89
2021/07/13 11:42:09;;;;;;;31.27;28.07;;;;;;;26.73;62.99;99235.44;6043321;23;20019;-90
2021/07/13 11:44:38;;;;;;;32.20;29.08;;;;;;;26.79;62.99;99241.88;6043101;23;20023;-89
2021/07/13 11:47:34;;;;;;;28.98;26.08;;;;;;;26.79;62.33;99240.00;6043645;23;20353;-89
2021/07/13 11:50:01;;;;;;;28.55;24.85;;;;;;;26.87;61.88;99236.25;6043845;23;20102;-89
2021/07/13 11:52:29;;;;;;;25.42;22.90;;;;;;;26.90;61.55;99235.84;6043721;23;20019;-89
2021/07/13 11:55:52;;;;;;;27.27;23.83;;;;;;;26.87;61.39;99233.56;6066831;23;20029;-89
2021/07/13 11:58:25;;;;;;;27.58;24.67;;;;;;;26.90;61.07;99241.25;6043099;23;20030;-89
2021/07/13 12:00:52;;;;;;;28.75;25.95;;;;;;;26.92;61.14;99236.47;6043187;23;20473;-90
2021/07/13 12:03:30;;;;;;;31.13;26.15;;;;;;;26.90;61.28;99240.41;6043777;23;20047;-84
2021/07/13 12:06:15;;;;;;;25.58;22.98;;;;;;;26.89;61.13;99239.59;6043469;23;20479;-84
2021/07/13 12:08:41;;;;;;;28.48;25.70;;;;;;;26.95;60.66;99239.84;6043645;23;20058;-84
2021/07/13 12:11:11;;;;;;;30.48;27.38;;;;;;;26.94;60.70;99241.66;6043551;23;20098;-84
2021/07/13 12:13:37;;;;;;;29.90;26.90;;;;;;;26.95;61.00;99239.84;6043129;23;20062;-84
2021/07/13 12:16:22;;;;;;;29.75;26.63;;;;;;;26.90;61.32;99238.56;6043548;23;20031;-84
2021/07/13 12:18:50;;;;;;;30.92;27.85;;;;;;;26.95;61.03;99235.28;6043682;23;20058;-84